オウル の空港の天気 - METARとTAF

オウル空港 ( EFOU / OUL ) - フィンランド Oulunsalo
飛行場実況気象(Metar)
観測時間07/22 04:50 EEST (07/22 01:50 UTC)
風向・風速南東 2m/s
視程10km以上
天気現象
なし
気温15℃
湿度67%
気圧1016hPa
METAREFOU 220150Z AUTO 13004KT CAVOK 15/09 Q1016
過去の天気等 Google飛行場航空写真 Wunderground天気予報

過去48時間のMETAR

飛行場予報(TAF)
発表時間: 7/22 02:25 EEST (7/21 23:25 UTC)
予報対象時間: 22日3時 EEST ~ 23日3時 EEST
風向・風速南東 2m/s
視程10km以上
なし
22日11時 EEST ~ 22日16時 EEST に一時的に
少しの塔状積雲 雲底高度 1830m
TAF EFOU 212325Z 2200/2300 13003KT CAVOK
TEMPO 2208/2213 FEW060TCU